sensor_id;sensor_type;location;lat;lon;timestamp;P1;durP1;ratioP1;P2;durP2;ratioP2
60726;SDS011;46577;49.004;12.120;2023-02-28T00:00:48;8.20;;;3.47;;
60726;SDS011;46577;49.004;12.120;2023-02-28T00:03:14;7.63;;;3.37;;
60726;SDS011;46577;49.004;12.120;2023-02-28T00:05:40;3.90;;;2.70;;
60726;SDS011;46577;49.004;12.120;2023-02-28T00:08:06;5.27;;;3.33;;
60726;SDS011;46577;49.004;12.120;2023-02-28T00:10:32;4.33;;;3.13;;
60726;SDS011;46577;49.004;12.120;2023-02-28T00:13:05;4.43;;;3.10;;
60726;SDS011;46577;49.004;12.120;2023-02-28T00:15:31;8.37;;;3.70;;
60726;SDS011;46577;49.004;12.120;2023-02-28T00:17:58;7.83;;;3.00;;
60726;SDS011;46577;49.004;12.120;2023-02-28T00:20:24;5.40;;;3.40;;
60726;SDS011;46577;49.004;12.120;2023-02-28T00:22:51;6.50;;;3.50;;
60726;SDS011;46577;49.004;12.120;2023-02-28T00:25:19;5.80;;;3.40;;
60726;SDS011;46577;49.004;12.120;2023-02-28T00:27:49;8.40;;;3.80;;
60726;SDS011;46577;49.004;12.120;2023-02-28T00:30:17;5.20;;;3.57;;
60726;SDS011;46577;49.004;12.120;2023-02-28T00:32:43;6.17;;;3.20;;
60726;SDS011;46577;49.004;12.120;2023-02-28T00:35:10;6.80;;;3.13;;
60726;SDS011;46577;49.004;12.120;2023-02-28T00:37:37;6.40;;;3.63;;
60726;SDS011;46577;49.004;12.120;2023-02-28T00:40:03;6.17;;;4.20;;
60726;SDS011;46577;49.004;12.120;2023-02-28T00:42:31;9.40;;;4.13;;
60726;SDS011;46577;49.004;12.120;2023-02-28T00:44:57;6.67;;;3.70;;
60726;SDS011;46577;49.004;12.120;2023-02-28T00:47:23;7.30;;;4.63;;
60726;SDS011;46577;49.004;12.120;2023-02-28T00:49:48;10.10;;;4.67;;
60726;SDS011;46577;49.004;12.120;2023-02-28T00:52:14;6.77;;;3.63;;
60726;SDS011;46577;49.004;12.120;2023-02-28T00:54:40;5.73;;;3.30;;
60726;SDS011;46577;49.004;12.120;2023-02-28T00:57:06;10.83;;;4.07;;
60726;SDS011;46577;49.004;12.120;2023-02-28T00:59:32;6.87;;;3.83;;
60726;SDS011;46577;49.004;12.120;2023-02-28T01:01:57;8.63;;;3.87;;
60726;SDS011;46577;49.004;12.120;2023-02-28T01:04:23;3.53;;;2.97;;
60726;SDS011;46577;49.004;12.120;2023-02-28T01:06:49;7.10;;;4.00;;
60726;SDS011;46577;49.004;12.120;2023-02-28T01:09:14;8.57;;;4.60;;
60726;SDS011;46577;49.004;12.120;2023-02-28T01:11:40;6.97;;;4.27;;
60726;SDS011;46577;49.004;12.120;2023-02-28T01:14:15;9.33;;;4.27;;
60726;SDS011;46577;49.004;12.120;2023-02-28T01:16:41;7.87;;;4.07;;
60726;SDS011;46577;49.004;12.120;2023-02-28T01:19:08;6.57;;;4.00;;
60726;SDS011;46577;49.004;12.120;2023-02-28T01:21:34;6.50;;;4.10;;
60726;SDS011;46577;49.004;12.120;2023-02-28T01:24:00;9.27;;;4.57;;
60726;SDS011;46577;49.004;12.120;2023-02-28T01:26:26;9.53;;;4.70;;
60726;SDS011;46577;49.004;12.120;2023-02-28T01:28:52;7.83;;;4.53;;
60726;SDS011;46577;49.004;12.120;2023-02-28T01:31:19;8.60;;;4.63;;
60726;SDS011;46577;49.004;12.120;2023-02-28T01:33:45;6.40;;;4.50;;
60726;SDS011;46577;49.004;12.120;2023-02-28T01:36:13;10.03;;;4.33;;
60726;SDS011;46577;49.004;12.120;2023-02-28T01:38:43;6.87;;;4.37;;
60726;SDS011;46577;49.004;12.120;2023-02-28T01:41:12;8.80;;;4.47;;
60726;SDS011;46577;49.004;12.120;2023-02-28T01:46:10;8.00;;;4.70;;
60726;SDS011;46577;49.004;12.120;2023-02-28T01:48:37;11.80;;;4.90;;
60726;SDS011;46577;49.004;12.120;2023-02-28T01:51:08;10.20;;;5.20;;
60726;SDS011;46577;49.004;12.120;2023-02-28T01:53:39;6.40;;;4.40;;
60726;SDS011;46577;49.004;12.120;2023-02-28T01:56:09;7.90;;;4.70;;
60726;SDS011;46577;49.004;12.120;2023-02-28T01:58:37;6.83;;;4.53;;
60726;SDS011;46577;49.004;12.120;2023-02-28T02:01:04;8.87;;;5.23;;
60726;SDS011;46577;49.004;12.120;2023-02-28T02:03:30;7.67;;;4.63;;
60726;SDS011;46577;49.004;12.120;2023-02-28T02:05:56;7.00;;;4.60;;
60726;SDS011;46577;49.004;12.120;2023-02-28T02:08:23;9.67;;;5.00;;
60726;SDS011;46577;49.004;12.120;2023-02-28T02:10:57;7.80;;;4.53;;
60726;SDS011;46577;49.004;12.120;2023-02-28T02:27:45;10.33;;;5.30;;
60726;SDS011;46577;49.004;12.120;2023-02-28T02:36:20;9.63;;;5.33;;
60726;SDS011;46577;49.004;12.120;2023-02-28T02:38:55;11.50;;;5.40;;
60726;SDS011;46577;49.004;12.120;2023-02-28T02:41:52;11.40;;;5.80;;
60726;SDS011;46577;49.004;12.120;2023-02-28T02:47:01;7.43;;;4.93;;
60726;SDS011;46577;49.004;12.120;2023-02-28T02:52:55;10.80;;;5.67;;
60726;SDS011;46577;49.004;12.120;2023-02-28T02:55:23;5.63;;;4.53;;
60726;SDS011;46577;49.004;12.120;2023-02-28T02:57:51;11.10;;;5.80;;
60726;SDS011;46577;49.004;12.120;2023-02-28T03:00:34;7.30;;;4.83;;
60726;SDS011;46577;49.004;12.120;2023-02-28T03:03:03;12.83;;;5.90;;
60726;SDS011;46577;49.004;12.120;2023-02-28T03:05:50;13.60;;;5.90;;
60726;SDS011;46577;49.004;12.120;2023-02-28T03:08:16;12.37;;;5.70;;
60726;SDS011;46577;49.004;12.120;2023-02-28T03:10:46;9.90;;;5.70;;
60726;SDS011;46577;49.004;12.120;2023-02-28T03:18:32;9.00;;;6.17;;
60726;SDS011;46577;49.004;12.120;2023-02-28T03:24:32;15.13;;;5.80;;
60726;SDS011;46577;49.004;12.120;2023-02-28T03:27:11;7.80;;;5.30;;
60726;SDS011;46577;49.004;12.120;2023-02-28T03:29:40;11.27;;;5.77;;
60726;SDS011;46577;49.004;12.120;2023-02-28T03:34:40;12.30;;;6.00;;
60726;SDS011;46577;49.004;12.120;2023-02-28T03:37:12;15.50;;;6.10;;
60726;SDS011;46577;49.004;12.120;2023-02-28T03:39:44;9.50;;;5.40;;
60726;SDS011;46577;49.004;12.120;2023-02-28T03:42:15;12.03;;;6.40;;
60726;SDS011;46577;49.004;12.120;2023-02-28T03:44:52;9.93;;;5.70;;
60726;SDS011;46577;49.004;12.120;2023-02-28T03:47:22;10.57;;;5.40;;
60726;SDS011;46577;49.004;12.120;2023-02-28T03:52:33;11.83;;;6.40;;
60726;SDS011;46577;49.004;12.120;2023-02-28T03:55:04;15.63;;;6.80;;
60726;SDS011;46577;49.004;12.120;2023-02-28T03:57:43;12.50;;;6.60;;
60726;SDS011;46577;49.004;12.120;2023-02-28T04:00:19;16.80;;;6.57;;
60726;SDS011;46577;49.004;12.120;2023-02-28T04:02:49;19.50;;;6.57;;
60726;SDS011;46577;49.004;12.120;2023-02-28T04:05:17;12.27;;;6.50;;
60726;SDS011;46577;49.004;12.120;2023-02-28T04:07:47;10.30;;;5.57;;
60726;SDS011;46577;49.004;12.120;2023-02-28T04:10:13;23.03;;;6.50;;
60726;SDS011;46577;49.004;12.120;2023-02-28T04:12:40;11.03;;;6.27;;
60726;SDS011;46577;49.004;12.120;2023-02-28T04:15:06;11.77;;;6.30;;
60726;SDS011;46577;49.004;12.120;2023-02-28T04:17:32;16.70;;;6.97;;
60726;SDS011;46577;49.004;12.120;2023-02-28T04:19:57;9.70;;;5.70;;
60726;SDS011;46577;49.004;12.120;2023-02-28T04:22:23;13.87;;;6.40;;
60726;SDS011;46577;49.004;12.120;2023-02-28T04:24:51;16.67;;;6.50;;
60726;SDS011;46577;49.004;12.120;2023-02-28T04:27:19;13.13;;;6.30;;
60726;SDS011;46577;49.004;12.120;2023-02-28T04:29:45;10.33;;;6.50;;
60726;SDS011;46577;49.004;12.120;2023-02-28T04:32:10;13.30;;;7.70;;
60726;SDS011;46577;49.004;12.120;2023-02-28T04:34:36;23.23;;;7.00;;
60726;SDS011;46577;49.004;12.120;2023-02-28T04:37:02;14.63;;;6.00;;
60726;SDS011;46577;49.004;12.120;2023-02-28T04:39:28;14.70;;;7.50;;
60726;SDS011;46577;49.004;12.120;2023-02-28T04:41:54;13.90;;;6.90;;
60726;SDS011;46577;49.004;12.120;2023-02-28T04:44:20;13.30;;;7.27;;
60726;SDS011;46577;49.004;12.120;2023-02-28T04:46:47;19.33;;;7.67;;
60726;SDS011;46577;49.004;12.120;2023-02-28T04:49:13;16.70;;;7.40;;
60726;SDS011;46577;49.004;12.120;2023-02-28T04:51:39;11.97;;;6.80;;
60726;SDS011;46577;49.004;12.120;2023-02-28T04:54:05;12.67;;;6.90;;
60726;SDS011;46577;49.004;12.120;2023-02-28T04:56:31;13.13;;;6.57;;
60726;SDS011;46577;49.004;12.120;2023-02-28T04:58:56;19.03;;;7.10;;
60726;SDS011;46577;49.004;12.120;2023-02-28T05:01:26;16.53;;;7.03;;
60726;SDS011;46577;49.004;12.120;2023-02-28T05:03:54;11.50;;;6.50;;
60726;SDS011;46577;49.004;12.120;2023-02-28T05:06:22;10.20;;;5.90;;
60726;SDS011;46577;49.004;12.120;2023-02-28T05:08:50;10.83;;;6.30;;
60726;SDS011;46577;49.004;12.120;2023-02-28T05:11:19;13.00;;;7.53;;
60726;SDS011;46577;49.004;12.120;2023-02-28T05:13:54;12.60;;;5.97;;
60726;SDS011;46577;49.004;12.120;2023-02-28T05:16:20;22.93;;;7.70;;
60726;SDS011;46577;49.004;12.120;2023-02-28T05:18:46;13.73;;;7.00;;
60726;SDS011;46577;49.004;12.120;2023-02-28T05:21:23;10.53;;;6.17;;
60726;SDS011;46577;49.004;12.120;2023-02-28T05:23:52;17.50;;;7.60;;
60726;SDS011;46577;49.004;12.120;2023-02-28T05:26:18;25.87;;;7.60;;
60726;SDS011;46577;49.004;12.120;2023-02-28T05:28:44;26.53;;;7.43;;
60726;SDS011;46577;49.004;12.120;2023-02-28T05:31:11;11.47;;;6.93;;
60726;SDS011;46577;49.004;12.120;2023-02-28T05:33:37;14.60;;;6.90;;
60726;SDS011;46577;49.004;12.120;2023-02-28T05:36:02;15.97;;;7.43;;
60726;SDS011;46577;49.004;12.120;2023-02-28T05:38:29;16.07;;;7.60;;
60726;SDS011;46577;49.004;12.120;2023-02-28T05:40:54;21.43;;;9.13;;
60726;SDS011;46577;49.004;12.120;2023-02-28T05:43:21;14.43;;;7.87;;
60726;SDS011;46577;49.004;12.120;2023-02-28T05:45:46;12.43;;;7.50;;
60726;SDS011;46577;49.004;12.120;2023-02-28T05:48:12;12.00;;;6.40;;
60726;SDS011;46577;49.004;12.120;2023-02-28T05:50:38;13.00;;;7.17;;
60726;SDS011;46577;49.004;12.120;2023-02-28T05:53:04;19.87;;;8.50;;
60726;SDS011;46577;49.004;12.120;2023-02-28T05:55:30;13.80;;;7.10;;
60726;SDS011;46577;49.004;12.120;2023-02-28T05:57:56;16.37;;;8.67;;
60726;SDS011;46577;49.004;12.120;2023-02-28T06:00:21;21.70;;;7.83;;
60726;SDS011;46577;49.004;12.120;2023-02-28T06:02:47;17.87;;;8.10;;
60726;SDS011;46577;49.004;12.120;2023-02-28T06:05:14;14.00;;;7.10;;
60726;SDS011;46577;49.004;12.120;2023-02-28T06:07:41;17.93;;;8.00;;
60726;SDS011;46577;49.004;12.120;2023-02-28T06:10:07;14.03;;;7.63;;
60726;SDS011;46577;49.004;12.120;2023-02-28T06:12:33;25.43;;;7.60;;
60726;SDS011;46577;49.004;12.120;2023-02-28T06:14:58;33.57;;;7.77;;
60726;SDS011;46577;49.004;12.120;2023-02-28T06:17:24;21.50;;;8.27;;
60726;SDS011;46577;49.004;12.120;2023-02-28T06:19:49;38.00;;;11.60;;
60726;SDS011;46577;49.004;12.120;2023-02-28T06:22:15;22.03;;;7.17;;
60726;SDS011;46577;49.004;12.120;2023-02-28T06:24:41;16.70;;;6.90;;
60726;SDS011;46577;49.004;12.120;2023-02-28T06:27:06;15.53;;;5.90;;
60726;SDS011;46577;49.004;12.120;2023-02-28T06:29:33;21.17;;;7.50;;
60726;SDS011;46577;49.004;12.120;2023-02-28T06:31:59;28.53;;;8.00;;
60726;SDS011;46577;49.004;12.120;2023-02-28T06:34:25;18.60;;;6.53;;
60726;SDS011;46577;49.004;12.120;2023-02-28T06:36:51;11.27;;;6.30;;
60726;SDS011;46577;49.004;12.120;2023-02-28T06:39:17;24.93;;;6.50;;
60726;SDS011;46577;49.004;12.120;2023-02-28T06:41:43;24.90;;;6.23;;
60726;SDS011;46577;49.004;12.120;2023-02-28T06:44:11;14.93;;;6.93;;
60726;SDS011;46577;49.004;12.120;2023-02-28T06:46:38;18.80;;;6.87;;
60726;SDS011;46577;49.004;12.120;2023-02-28T06:49:05;12.80;;;5.60;;
60726;SDS011;46577;49.004;12.120;2023-02-28T06:51:33;14.00;;;5.70;;
60726;SDS011;46577;49.004;12.120;2023-02-28T06:54:00;29.63;;;7.30;;
60726;SDS011;46577;49.004;12.120;2023-02-28T06:56:25;24.87;;;7.90;;
60726;SDS011;46577;49.004;12.120;2023-02-28T06:58:51;28.97;;;6.70;;
60726;SDS011;46577;49.004;12.120;2023-02-28T07:01:20;21.77;;;7.77;;
60726;SDS011;46577;49.004;12.120;2023-02-28T07:03:47;14.33;;;6.27;;
60726;SDS011;46577;49.004;12.120;2023-02-28T07:06:17;11.87;;;6.20;;
60726;SDS011;46577;49.004;12.120;2023-02-28T07:08:43;18.17;;;6.10;;
60726;SDS011;46577;49.004;12.120;2023-02-28T07:11:09;12.63;;;6.30;;
60726;SDS011;46577;49.004;12.120;2023-02-28T07:13:35;15.10;;;6.90;;
60726;SDS011;46577;49.004;12.120;2023-02-28T07:16:04;13.43;;;6.60;;
60726;SDS011;46577;49.004;12.120;2023-02-28T07:18:31;17.03;;;7.40;;
60726;SDS011;46577;49.004;12.120;2023-02-28T07:20:57;13.10;;;6.40;;
60726;SDS011;46577;49.004;12.120;2023-02-28T07:23:23;19.70;;;6.00;;
60726;SDS011;46577;49.004;12.120;2023-02-28T07:25:50;19.73;;;7.07;;
60726;SDS011;46577;49.004;12.120;2023-02-28T07:28:16;12.73;;;6.20;;
60726;SDS011;46577;49.004;12.120;2023-02-28T07:30:41;26.37;;;7.17;;
60726;SDS011;46577;49.004;12.120;2023-02-28T07:33:08;20.80;;;7.90;;
60726;SDS011;46577;49.004;12.120;2023-02-28T07:35:34;17.80;;;5.70;;
60726;SDS011;46577;49.004;12.120;2023-02-28T07:37:59;28.33;;;6.97;;
60726;SDS011;46577;49.004;12.120;2023-02-28T07:40:25;12.97;;;6.37;;
60726;SDS011;46577;49.004;12.120;2023-02-28T07:42:51;16.60;;;6.10;;
60726;SDS011;46577;49.004;12.120;2023-02-28T07:45:17;46.23;;;7.07;;
60726;SDS011;46577;49.004;12.120;2023-02-28T07:47:43;22.03;;;6.30;;
60726;SDS011;46577;49.004;12.120;2023-02-28T07:50:10;24.10;;;7.17;;
60726;SDS011;46577;49.004;12.120;2023-02-28T07:52:37;13.70;;;6.37;;
60726;SDS011;46577;49.004;12.120;2023-02-28T07:55:04;26.77;;;7.10;;
60726;SDS011;46577;49.004;12.120;2023-02-28T07:57:30;15.53;;;6.50;;
60726;SDS011;46577;49.004;12.120;2023-02-28T07:59:56;21.83;;;6.53;;
60726;SDS011;46577;49.004;12.120;2023-02-28T08:02:22;20.00;;;7.27;;
60726;SDS011;46577;49.004;12.120;2023-02-28T08:04:48;31.10;;;7.40;;
60726;SDS011;46577;49.004;12.120;2023-02-28T08:07:14;11.43;;;7.50;;
60726;SDS011;46577;49.004;12.120;2023-02-28T08:09:41;31.13;;;7.07;;
60726;SDS011;46577;49.004;12.120;2023-02-28T08:12:07;23.30;;;7.30;;
60726;SDS011;46577;49.004;12.120;2023-02-28T08:14:33;43.47;;;7.70;;
60726;SDS011;46577;49.004;12.120;2023-02-28T08:17:00;27.20;;;6.53;;
60726;SDS011;46577;49.004;12.120;2023-02-28T08:19:26;20.40;;;7.50;;
60726;SDS011;46577;49.004;12.120;2023-02-28T08:21:53;13.00;;;6.10;;
60726;SDS011;46577;49.004;12.120;2023-02-28T08:24:18;23.03;;;7.70;;
60726;SDS011;46577;49.004;12.120;2023-02-28T08:26:44;35.63;;;8.17;;
60726;SDS011;46577;49.004;12.120;2023-02-28T08:29:09;21.83;;;6.20;;
60726;SDS011;46577;49.004;12.120;2023-02-28T08:31:35;18.37;;;6.80;;
60726;SDS011;46577;49.004;12.120;2023-02-28T08:34:11;25.90;;;7.57;;
60726;SDS011;46577;49.004;12.120;2023-02-28T08:36:38;12.57;;;7.10;;
60726;SDS011;46577;49.004;12.120;2023-02-28T08:39:05;22.47;;;8.00;;
60726;SDS011;46577;49.004;12.120;2023-02-28T08:41:31;15.77;;;7.00;;
60726;SDS011;46577;49.004;12.120;2023-02-28T08:43:57;16.00;;;9.20;;
60726;SDS011;46577;49.004;12.120;2023-02-28T08:46:22;27.53;;;7.53;;
60726;SDS011;46577;49.004;12.120;2023-02-28T08:48:52;15.53;;;6.57;;
60726;SDS011;46577;49.004;12.120;2023-02-28T08:51:19;20.07;;;7.03;;
60726;SDS011;46577;49.004;12.120;2023-02-28T08:53:51;16.93;;;7.70;;
60726;SDS011;46577;49.004;12.120;2023-02-28T08:56:17;16.33;;;7.20;;
60726;SDS011;46577;49.004;12.120;2023-02-28T08:58:44;17.00;;;7.33;;
60726;SDS011;46577;49.004;12.120;2023-02-28T09:01:14;13.93;;;7.70;;
60726;SDS011;46577;49.004;12.120;2023-02-28T09:03:41;19.30;;;7.87;;
60726;SDS011;46577;49.004;12.120;2023-02-28T09:06:08;16.30;;;7.60;;
60726;SDS011;46577;49.004;12.120;2023-02-28T09:08:35;13.20;;;7.10;;
60726;SDS011;46577;49.004;12.120;2023-02-28T09:11:01;28.33;;;7.80;;
60726;SDS011;46577;49.004;12.120;2023-02-28T09:13:28;42.73;;;10.10;;
60726;SDS011;46577;49.004;12.120;2023-02-28T09:15:54;14.20;;;7.10;;
60726;SDS011;46577;49.004;12.120;2023-02-28T09:18:23;13.43;;;7.30;;
60726;SDS011;46577;49.004;12.120;2023-02-28T09:20:49;12.40;;;8.03;;
60726;SDS011;46577;49.004;12.120;2023-02-28T09:23:15;14.50;;;7.40;;
60726;SDS011;46577;49.004;12.120;2023-02-28T09:25:47;20.07;;;7.90;;
60726;SDS011;46577;49.004;12.120;2023-02-28T09:28:18;12.13;;;7.30;;
60726;SDS011;46577;49.004;12.120;2023-02-28T09:30:45;11.73;;;7.17;;
60726;SDS011;46577;49.004;12.120;2023-02-28T09:33:13;26.43;;;8.23;;
60726;SDS011;46577;49.004;12.120;2023-02-28T09:35:39;17.63;;;7.67;;
60726;SDS011;46577;49.004;12.120;2023-02-28T09:38:05;15.80;;;7.50;;
60726;SDS011;46577;49.004;12.120;2023-02-28T09:40:34;32.80;;;9.03;;
60726;SDS011;46577;49.004;12.120;2023-02-28T09:43:29;13.43;;;7.00;;
60726;SDS011;46577;49.004;12.120;2023-02-28T09:46:08;15.30;;;7.20;;
60726;SDS011;46577;49.004;12.120;2023-02-28T09:48:59;21.93;;;7.77;;
60726;SDS011;46577;49.004;12.120;2023-02-28T09:51:40;20.50;;;7.50;;
60726;SDS011;46577;49.004;12.120;2023-02-28T09:54:20;43.93;;;10.10;;
60726;SDS011;46577;49.004;12.120;2023-02-28T09:56:50;15.73;;;7.77;;
60726;SDS011;46577;49.004;12.120;2023-02-28T09:59:25;21.37;;;7.13;;
60726;SDS011;46577;49.004;12.120;2023-02-28T10:09:56;26.57;;;8.30;;
60726;SDS011;46577;49.004;12.120;2023-02-28T10:12:25;18.37;;;7.27;;
60726;SDS011;46577;49.004;12.120;2023-02-28T10:14:52;12.87;;;7.30;;
60726;SDS011;46577;49.004;12.120;2023-02-28T10:17:21;12.20;;;6.60;;
60726;SDS011;46577;49.004;12.120;2023-02-28T10:20:05;10.23;;;7.40;;
60726;SDS011;46577;49.004;12.120;2023-02-28T10:22:48;15.30;;;6.97;;
60726;SDS011;46577;49.004;12.120;2023-02-28T10:25:22;16.10;;;7.27;;
60726;SDS011;46577;49.004;12.120;2023-02-28T10:27:52;19.57;;;7.20;;
60726;SDS011;46577;49.004;12.120;2023-02-28T10:30:22;17.77;;;7.57;;
60726;SDS011;46577;49.004;12.120;2023-02-28T10:32:51;16.13;;;7.00;;
60726;SDS011;46577;49.004;12.120;2023-02-28T10:35:22;12.60;;;7.50;;
60726;SDS011;46577;49.004;12.120;2023-02-28T10:37:50;9.67;;;7.20;;
60726;SDS011;46577;49.004;12.120;2023-02-28T10:43:17;12.60;;;7.60;;
60726;SDS011;46577;49.004;12.120;2023-02-28T10:46:09;18.03;;;8.00;;
60726;SDS011;46577;49.004;12.120;2023-02-28T10:51:11;22.93;;;8.10;;
60726;SDS011;46577;49.004;12.120;2023-02-28T10:53:48;34.00;;;9.40;;
60726;SDS011;46577;49.004;12.120;2023-02-28T10:56:17;24.53;;;8.37;;
60726;SDS011;46577;49.004;12.120;2023-02-28T10:58:47;25.30;;;7.70;;
60726;SDS011;46577;49.004;12.120;2023-02-28T11:06:48;12.23;;;7.07;;
60726;SDS011;46577;49.004;12.120;2023-02-28T11:09:25;28.93;;;7.70;;
60726;SDS011;46577;49.004;12.120;2023-02-28T11:11:56;20.03;;;7.10;;
60726;SDS011;46577;49.004;12.120;2023-02-28T11:14:27;14.37;;;8.40;;
60726;SDS011;46577;49.004;12.120;2023-02-28T11:16:55;11.80;;;7.50;;
60726;SDS011;46577;49.004;12.120;2023-02-28T11:19:27;17.77;;;7.37;;
60726;SDS011;46577;49.004;12.120;2023-02-28T11:22:04;13.60;;;6.97;;
60726;SDS011;46577;49.004;12.120;2023-02-28T11:26:56;21.43;;;7.70;;
60726;SDS011;46577;49.004;12.120;2023-02-28T11:29:23;14.83;;;8.43;;
60726;SDS011;46577;49.004;12.120;2023-02-28T11:37:25;18.10;;;8.20;;
60726;SDS011;46577;49.004;12.120;2023-02-28T11:39:53;15.67;;;8.43;;
60726;SDS011;46577;49.004;12.120;2023-02-28T11:42:25;12.40;;;7.73;;
60726;SDS011;46577;49.004;12.120;2023-02-28T11:48:03;11.97;;;8.07;;
60726;SDS011;46577;49.004;12.120;2023-02-28T11:56:31;13.77;;;8.13;;
60726;SDS011;46577;49.004;12.120;2023-02-28T12:01:45;27.53;;;10.00;;
60726;SDS011;46577;49.004;12.120;2023-02-28T12:04:42;30.60;;;9.80;;
60726;SDS011;46577;49.004;12.120;2023-02-28T12:15:32;13.83;;;7.87;;
60726;SDS011;46577;49.004;12.120;2023-02-28T12:18:15;15.77;;;8.83;;
60726;SDS011;46577;49.004;12.120;2023-02-28T12:26:47;10.73;;;8.17;;
60726;SDS011;46577;49.004;12.120;2023-02-28T12:29:23;15.30;;;8.33;;
60726;SDS011;46577;49.004;12.120;2023-02-28T12:32:13;10.57;;;8.27;;
60726;SDS011;46577;49.004;12.120;2023-02-28T12:34:59;15.20;;;8.80;;
60726;SDS011;46577;49.004;12.120;2023-02-28T12:40:01;12.23;;;8.50;;
60726;SDS011;46577;49.004;12.120;2023-02-28T12:42:31;12.50;;;8.67;;
60726;SDS011;46577;49.004;12.120;2023-02-28T12:45:13;20.20;;;9.37;;
60726;SDS011;46577;49.004;12.120;2023-02-28T12:47:48;63.33;;;13.03;;
60726;SDS011;46577;49.004;12.120;2023-02-28T12:50:20;18.53;;;9.97;;
60726;SDS011;46577;49.004;12.120;2023-02-28T12:53:00;16.60;;;9.43;;
60726;SDS011;46577;49.004;12.120;2023-02-28T12:58:51;20.83;;;9.60;;
60726;SDS011;46577;49.004;12.120;2023-02-28T13:01:26;24.83;;;10.50;;
60726;SDS011;46577;49.004;12.120;2023-02-28T13:07:17;22.17;;;9.03;;
60726;SDS011;46577;49.004;12.120;2023-02-28T13:10:05;17.40;;;8.10;;
60726;SDS011;46577;49.004;12.120;2023-02-28T13:12:32;30.00;;;10.07;;
60726;SDS011;46577;49.004;12.120;2023-02-28T13:15:07;29.27;;;9.80;;
60726;SDS011;46577;49.004;12.120;2023-02-28T13:17:41;19.33;;;8.90;;
60726;SDS011;46577;49.004;12.120;2023-02-28T13:24:12;28.90;;;8.63;;
60726;SDS011;46577;49.004;12.120;2023-02-28T13:26:11;16.23;;;8.53;;
60726;SDS011;46577;49.004;12.120;2023-02-28T13:31:23;21.80;;;10.07;;
60726;SDS011;46577;49.004;12.120;2023-02-28T13:38:48;19.03;;;8.30;;
60726;SDS011;46577;49.004;12.120;2023-02-28T13:44:09;49.03;;;9.00;;
60726;SDS011;46577;49.004;12.120;2023-02-28T13:49:25;16.13;;;7.57;;
60726;SDS011;46577;49.004;12.120;2023-02-28T13:59:27;57.23;;;8.60;;
60726;SDS011;46577;49.004;12.120;2023-02-28T14:04:43;15.53;;;8.13;;
60726;SDS011;46577;49.004;12.120;2023-02-28T14:07:18;42.43;;;8.13;;
60726;SDS011;46577;49.004;12.120;2023-02-28T14:09:53;24.63;;;8.10;;
60726;SDS011;46577;49.004;12.120;2023-02-28T14:18:14;40.80;;;9.90;;
60726;SDS011;46577;49.004;12.120;2023-02-28T14:20:49;26.07;;;8.50;;
60726;SDS011;46577;49.004;12.120;2023-02-28T14:23:22;29.83;;;7.70;;
60726;SDS011;46577;49.004;12.120;2023-02-28T14:31:28;17.77;;;8.43;;
60726;SDS011;46577;49.004;12.120;2023-02-28T14:36:26;18.67;;;8.03;;
60726;SDS011;46577;49.004;12.120;2023-02-28T14:38:57;18.73;;;9.13;;
60726;SDS011;46577;49.004;12.120;2023-02-28T14:41:33;20.13;;;9.60;;
60726;SDS011;46577;49.004;12.120;2023-02-28T14:44:02;15.70;;;8.40;;
60726;SDS011;46577;49.004;12.120;2023-02-28T14:46:38;14.07;;;8.53;;
60726;SDS011;46577;49.004;12.120;2023-02-28T14:49:06;16.87;;;8.77;;
60726;SDS011;46577;49.004;12.120;2023-02-28T14:51:38;11.40;;;7.77;;
60726;SDS011;46577;49.004;12.120;2023-02-28T14:54:04;24.70;;;8.60;;
60726;SDS011;46577;49.004;12.120;2023-02-28T14:56:32;16.30;;;8.57;;
60726;SDS011;46577;49.004;12.120;2023-02-28T14:59:01;21.50;;;8.47;;
60726;SDS011;46577;49.004;12.120;2023-02-28T15:01:28;26.50;;;8.20;;
60726;SDS011;46577;49.004;12.120;2023-02-28T15:03:58;19.63;;;7.93;;
60726;SDS011;46577;49.004;12.120;2023-02-28T15:06:29;15.30;;;8.20;;
60726;SDS011;46577;49.004;12.120;2023-02-28T15:11:40;18.13;;;8.13;;
60726;SDS011;46577;49.004;12.120;2023-02-28T15:14:06;19.23;;;8.53;;
60726;SDS011;46577;49.004;12.120;2023-02-28T15:16:39;23.07;;;7.63;;
60726;SDS011;46577;49.004;12.120;2023-02-28T15:19:08;30.07;;;8.70;;
60726;SDS011;46577;49.004;12.120;2023-02-28T15:21:41;28.23;;;9.23;;
60726;SDS011;46577;49.004;12.120;2023-02-28T15:26:42;18.50;;;8.30;;
60726;SDS011;46577;49.004;12.120;2023-02-28T15:29:19;29.63;;;9.33;;
60726;SDS011;46577;49.004;12.120;2023-02-28T15:39:58;30.83;;;9.50;;
60726;SDS011;46577;49.004;12.120;2023-02-28T15:42:35;16.53;;;10.20;;
60726;SDS011;46577;49.004;12.120;2023-02-28T15:45:01;18.60;;;8.57;;
60726;SDS011;46577;49.004;12.120;2023-02-28T15:47:27;28.40;;;10.40;;
60726;SDS011;46577;49.004;12.120;2023-02-28T15:49:56;20.00;;;8.57;;
60726;SDS011;46577;49.004;12.120;2023-02-28T15:52:39;27.60;;;9.40;;
60726;SDS011;46577;49.004;12.120;2023-02-28T15:55:12;53.97;;;12.20;;
60726;SDS011;46577;49.004;12.120;2023-02-28T15:57:47;22.93;;;9.60;;
60726;SDS011;46577;49.004;12.120;2023-02-28T16:00:18;26.23;;;10.23;;
60726;SDS011;46577;49.004;12.120;2023-02-28T16:02:46;18.13;;;9.57;;
60726;SDS011;46577;49.004;12.120;2023-02-28T16:07:38;22.17;;;9.20;;
60726;SDS011;46577;49.004;12.120;2023-02-28T16:10:05;45.83;;;9.53;;
60726;SDS011;46577;49.004;12.120;2023-02-28T16:12:33;29.20;;;9.87;;
60726;SDS011;46577;49.004;12.120;2023-02-28T16:15:00;19.90;;;9.40;;
60726;SDS011;46577;49.004;12.120;2023-02-28T16:17:29;23.23;;;9.63;;
60726;SDS011;46577;49.004;12.120;2023-02-28T16:19:58;24.30;;;10.33;;
60726;SDS011;46577;49.004;12.120;2023-02-28T16:22:24;18.07;;;9.70;;
60726;SDS011;46577;49.004;12.120;2023-02-28T16:24:50;18.90;;;9.37;;
60726;SDS011;46577;49.004;12.120;2023-02-28T16:27:20;19.93;;;9.70;;
60726;SDS011;46577;49.004;12.120;2023-02-28T16:29:47;14.93;;;9.57;;
60726;SDS011;46577;49.004;12.120;2023-02-28T16:32:14;16.27;;;10.30;;
60726;SDS011;46577;49.004;12.120;2023-02-28T16:34:41;18.50;;;9.23;;
60726;SDS011;46577;49.004;12.120;2023-02-28T16:37:14;23.80;;;9.77;;
60726;SDS011;46577;49.004;12.120;2023-02-28T16:39:42;25.30;;;11.50;;
60726;SDS011;46577;49.004;12.120;2023-02-28T16:42:10;27.23;;;11.43;;
60726;SDS011;46577;49.004;12.120;2023-02-28T16:44:44;18.33;;;10.90;;
60726;SDS011;46577;49.004;12.120;2023-02-28T16:47:10;24.70;;;11.70;;
60726;SDS011;46577;49.004;12.120;2023-02-28T16:49:36;30.90;;;12.73;;
60726;SDS011;46577;49.004;12.120;2023-02-28T16:52:02;21.07;;;11.70;;
60726;SDS011;46577;49.004;12.120;2023-02-28T16:54:28;20.70;;;11.57;;
60726;SDS011;46577;49.004;12.120;2023-02-28T16:56:53;25.80;;;12.10;;
60726;SDS011;46577;49.004;12.120;2023-02-28T16:59:21;36.30;;;12.13;;
60726;SDS011;46577;49.004;12.120;2023-02-28T17:01:49;27.60;;;11.40;;
60726;SDS011;46577;49.004;12.120;2023-02-28T17:04:17;24.27;;;12.23;;
60726;SDS011;46577;49.004;12.120;2023-02-28T17:06:43;29.43;;;10.60;;
60726;SDS011;46577;49.004;12.120;2023-02-28T17:09:14;30.30;;;11.93;;
60726;SDS011;46577;49.004;12.120;2023-02-28T17:11:45;22.13;;;12.10;;
60726;SDS011;46577;49.004;12.120;2023-02-28T17:14:11;22.77;;;12.90;;
60726;SDS011;46577;49.004;12.120;2023-02-28T17:16:38;21.93;;;10.80;;